Weather at Fuerteventura Airport

Public forecast

Using degrees Celsius for public forecast. Weather courtesy of forecast.io.

Current aviation weather report (METAR) for Fuerteventura Airport

Report is more than 6 hours old.

2022/11/14 15:30 (retrieved 2 years ago)

GCFV 141530Z 04010KT CAVOK 25/20 Q1019

Aviation forecast (TAF) for Fuerteventura Airport

Forecast is more than 12 hours old.

2023/02/22 21:00 (retrieved 1 year ago)

TAF GCFV 222000Z 2221/2321 02014KT 9999 SCT030 TX21/2314Z TN16/2306Z PROB30 TEMPO 2223/2312 DZ